sensor_id;sensor_type;location;lat;lon;timestamp;P1;durP1;ratioP1;P2;durP2;ratioP2
43042;SDS011;28667;50.758;6.096;2022-10-13T00:00:08;4.88;;;2.47;;
43042;SDS011;28667;50.758;6.096;2022-10-13T00:02:37;6.10;;;3.22;;
43042;SDS011;28667;50.758;6.096;2022-10-13T00:05:04;6.60;;;2.65;;
43042;SDS011;28667;50.758;6.096;2022-10-13T00:07:31;6.53;;;2.63;;
43042;SDS011;28667;50.758;6.096;2022-10-13T00:09:58;7.22;;;3.00;;
43042;SDS011;28667;50.758;6.096;2022-10-13T00:12:23;5.68;;;2.50;;
43042;SDS011;28667;50.758;6.096;2022-10-13T00:14:49;5.65;;;2.88;;
43042;SDS011;28667;50.758;6.096;2022-10-13T00:17:16;7.88;;;3.40;;
43042;SDS011;28667;50.758;6.096;2022-10-13T00:19:42;3.20;;;2.75;;
43042;SDS011;28667;50.758;6.096;2022-10-13T00:22:08;3.80;;;2.42;;
43042;SDS011;28667;50.758;6.096;2022-10-13T00:24:35;5.13;;;2.70;;
43042;SDS011;28667;50.758;6.096;2022-10-13T00:27:01;5.40;;;2.50;;
43042;SDS011;28667;50.758;6.096;2022-10-13T00:29:26;6.05;;;2.75;;
43042;SDS011;28667;50.758;6.096;2022-10-13T00:31:53;7.47;;;2.78;;
43042;SDS011;28667;50.758;6.096;2022-10-13T00:34:19;5.28;;;2.95;;
43042;SDS011;28667;50.758;6.096;2022-10-13T00:36:45;5.60;;;3.13;;
43042;SDS011;28667;50.758;6.096;2022-10-13T00:39:11;3.97;;;2.50;;
43042;SDS011;28667;50.758;6.096;2022-10-13T00:41:37;7.43;;;2.20;;
43042;SDS011;28667;50.758;6.096;2022-10-13T00:44:05;5.38;;;2.83;;
43042;SDS011;28667;50.758;6.096;2022-10-13T00:46:51;5.30;;;3.00;;
43042;SDS011;28667;50.758;6.096;2022-10-13T00:49:17;6.80;;;2.50;;
43042;SDS011;28667;50.758;6.096;2022-10-13T00:51:46;4.90;;;3.03;;
43042;SDS011;28667;50.758;6.096;2022-10-13T00:54:17;5.35;;;2.60;;
43042;SDS011;28667;50.758;6.096;2022-10-13T00:56:48;4.10;;;2.50;;
43042;SDS011;28667;50.758;6.096;2022-10-13T00:59:19;5.28;;;2.42;;
43042;SDS011;28667;50.758;6.096;2022-10-13T01:01:48;9.02;;;3.00;;
43042;SDS011;28667;50.758;6.096;2022-10-13T01:04:18;3.75;;;2.63;;
43042;SDS011;28667;50.758;6.096;2022-10-13T01:06:47;3.42;;;2.97;;
43042;SDS011;28667;50.758;6.096;2022-10-13T01:09:15;4.57;;;2.72;;
43042;SDS011;28667;50.758;6.096;2022-10-13T01:31:55;5.13;;;2.70;;
43042;SDS011;28667;50.758;6.096;2022-10-13T01:34:25;8.45;;;2.83;;
43042;SDS011;28667;50.758;6.096;2022-10-13T01:36:55;4.00;;;2.72;;
43042;SDS011;28667;50.758;6.096;2022-10-13T01:39:40;5.53;;;2.58;;
43042;SDS011;28667;50.758;6.096;2022-10-13T01:42:23;4.30;;;1.98;;
43042;SDS011;28667;50.758;6.096;2022-10-13T01:45:03;3.03;;;2.22;;
43042;SDS011;28667;50.758;6.096;2022-10-13T01:47:32;4.22;;;2.30;;
43042;SDS011;28667;50.758;6.096;2022-10-13T01:49:59;5.55;;;2.10;;
43042;SDS011;28667;50.758;6.096;2022-10-13T01:52:30;4.00;;;2.15;;
43042;SDS011;28667;50.758;6.096;2022-10-13T01:55:03;4.20;;;2.50;;
43042;SDS011;28667;50.758;6.096;2022-10-13T01:57:36;3.50;;;2.40;;
43042;SDS011;28667;50.758;6.096;2022-10-13T02:00:05;5.20;;;2.10;;
43042;SDS011;28667;50.758;6.096;2022-10-13T02:03:16;2.60;;;1.98;;
43042;SDS011;28667;50.758;6.096;2022-10-13T02:05:49;7.80;;;3.00;;
43042;SDS011;28667;50.758;6.096;2022-10-13T02:08:39;10.38;;;2.63;;
43042;SDS011;28667;50.758;6.096;2022-10-13T02:11:15;5.85;;;2.42;;
43042;SDS011;28667;50.758;6.096;2022-10-13T02:13:48;4.03;;;2.25;;
43042;SDS011;28667;50.758;6.096;2022-10-13T02:16:30;2.72;;;2.45;;
43042;SDS011;28667;50.758;6.096;2022-10-13T02:19:01;4.15;;;2.40;;
43042;SDS011;28667;50.758;6.096;2022-10-13T02:21:29;4.38;;;2.35;;
43042;SDS011;28667;50.758;6.096;2022-10-13T02:24:01;4.03;;;2.38;;
43042;SDS011;28667;50.758;6.096;2022-10-13T02:26:29;4.43;;;2.55;;
43042;SDS011;28667;50.758;6.096;2022-10-13T02:29:11;3.95;;;2.20;;
43042;SDS011;28667;50.758;6.096;2022-10-13T02:31:39;3.72;;;2.60;;
43042;SDS011;28667;50.758;6.096;2022-10-13T02:34:06;5.25;;;2.17;;
43042;SDS011;28667;50.758;6.096;2022-10-13T02:36:32;5.43;;;2.42;;
43042;SDS011;28667;50.758;6.096;2022-10-13T02:38:58;6.13;;;2.28;;
43042;SDS011;28667;50.758;6.096;2022-10-13T02:41:25;5.00;;;2.50;;
43042;SDS011;28667;50.758;6.096;2022-10-13T02:43:51;3.67;;;1.92;;
43042;SDS011;28667;50.758;6.096;2022-10-13T02:46:16;2.10;;;1.75;;
43042;SDS011;28667;50.758;6.096;2022-10-13T02:48:43;7.38;;;2.65;;
43042;SDS011;28667;50.758;6.096;2022-10-13T02:51:09;3.35;;;2.42;;
43042;SDS011;28667;50.758;6.096;2022-10-13T02:53:35;7.78;;;2.30;;
43042;SDS011;28667;50.758;6.096;2022-10-13T02:56:01;4.32;;;2.30;;
43042;SDS011;28667;50.758;6.096;2022-10-13T02:58:29;3.63;;;1.95;;
43042;SDS011;28667;50.758;6.096;2022-10-13T03:01:09;6.75;;;2.33;;
43042;SDS011;28667;50.758;6.096;2022-10-13T03:03:37;3.47;;;2.25;;
43042;SDS011;28667;50.758;6.096;2022-10-13T03:06:04;3.78;;;2.10;;
43042;SDS011;28667;50.758;6.096;2022-10-13T03:08:33;3.03;;;1.77;;
43042;SDS011;28667;50.758;6.096;2022-10-13T03:10:59;5.25;;;2.30;;
43042;SDS011;28667;50.758;6.096;2022-10-13T03:13:25;7.85;;;1.90;;
43042;SDS011;28667;50.758;6.096;2022-10-13T03:15:52;3.90;;;2.55;;
43042;SDS011;28667;50.758;6.096;2022-10-13T03:18:18;5.35;;;2.42;;
43042;SDS011;28667;50.758;6.096;2022-10-13T03:20:44;3.30;;;2.08;;
43042;SDS011;28667;50.758;6.096;2022-10-13T03:23:19;2.72;;;2.05;;
43042;SDS011;28667;50.758;6.096;2022-10-13T03:25:45;6.70;;;2.22;;
43042;SDS011;28667;50.758;6.096;2022-10-13T03:28:11;2.97;;;2.03;;
43042;SDS011;28667;50.758;6.096;2022-10-13T03:30:39;2.88;;;2.15;;
43042;SDS011;28667;50.758;6.096;2022-10-13T03:33:04;6.35;;;2.38;;
43042;SDS011;28667;50.758;6.096;2022-10-13T03:35:30;3.80;;;2.85;;
43042;SDS011;28667;50.758;6.096;2022-10-13T03:37:57;3.60;;;2.10;;
43042;SDS011;28667;50.758;6.096;2022-10-13T03:40:23;4.95;;;2.08;;
43042;SDS011;28667;50.758;6.096;2022-10-13T03:42:49;4.10;;;2.00;;
43042;SDS011;28667;50.758;6.096;2022-10-13T03:45:16;2.40;;;1.98;;
43042;SDS011;28667;50.758;6.096;2022-10-13T03:47:41;7.15;;;2.40;;
43042;SDS011;28667;50.758;6.096;2022-10-13T03:50:08;4.10;;;2.28;;
43042;SDS011;28667;50.758;6.096;2022-10-13T03:52:35;6.93;;;2.35;;
43042;SDS011;28667;50.758;6.096;2022-10-13T03:55:01;4.25;;;2.10;;
43042;SDS011;28667;50.758;6.096;2022-10-13T03:57:27;5.20;;;2.45;;
43042;SDS011;28667;50.758;6.096;2022-10-13T03:59:53;5.47;;;1.63;;
43042;SDS011;28667;50.758;6.096;2022-10-13T04:02:24;3.78;;;2.08;;
43042;SDS011;28667;50.758;6.096;2022-10-13T04:04:50;2.92;;;2.00;;
43042;SDS011;28667;50.758;6.096;2022-10-13T04:07:16;3.55;;;2.83;;
43042;SDS011;28667;50.758;6.096;2022-10-13T04:09:43;5.05;;;3.00;;
43042;SDS011;28667;50.758;6.096;2022-10-13T04:12:09;3.58;;;2.72;;
43042;SDS011;28667;50.758;6.096;2022-10-13T04:14:35;7.88;;;3.13;;
43042;SDS011;28667;50.758;6.096;2022-10-13T04:17:06;3.97;;;2.17;;
43042;SDS011;28667;50.758;6.096;2022-10-13T04:19:32;5.00;;;2.67;;
43042;SDS011;28667;50.758;6.096;2022-10-13T04:22:04;13.23;;;3.22;;
43042;SDS011;28667;50.758;6.096;2022-10-13T04:24:30;6.82;;;2.88;;
43042;SDS011;28667;50.758;6.096;2022-10-13T04:26:56;6.45;;;2.45;;
43042;SDS011;28667;50.758;6.096;2022-10-13T04:29:22;3.25;;;2.42;;
43042;SDS011;28667;50.758;6.096;2022-10-13T04:31:50;3.85;;;2.47;;
43042;SDS011;28667;50.758;6.096;2022-10-13T04:34:16;4.93;;;2.58;;
43042;SDS011;28667;50.758;6.096;2022-10-13T04:36:42;4.32;;;2.15;;
43042;SDS011;28667;50.758;6.096;2022-10-13T04:39:08;7.40;;;3.67;;
43042;SDS011;28667;50.758;6.096;2022-10-13T04:41:34;4.93;;;3.05;;
43042;SDS011;28667;50.758;6.096;2022-10-13T04:44:00;5.15;;;2.78;;
43042;SDS011;28667;50.758;6.096;2022-10-13T04:46:26;9.32;;;3.72;;
43042;SDS011;28667;50.758;6.096;2022-10-13T04:48:55;3.90;;;2.95;;
43042;SDS011;28667;50.758;6.096;2022-10-13T04:51:27;4.13;;;2.58;;
43042;SDS011;28667;50.758;6.096;2022-10-13T04:53:54;4.68;;;2.88;;
43042;SDS011;28667;50.758;6.096;2022-10-13T04:56:21;5.57;;;2.58;;
43042;SDS011;28667;50.758;6.096;2022-10-13T04:58:48;6.70;;;3.05;;
43042;SDS011;28667;50.758;6.096;2022-10-13T05:01:16;4.45;;;2.88;;
43042;SDS011;28667;50.758;6.096;2022-10-13T05:03:48;6.63;;;2.83;;
43042;SDS011;28667;50.758;6.096;2022-10-13T05:06:17;4.63;;;3.08;;
43042;SDS011;28667;50.758;6.096;2022-10-13T05:08:48;5.20;;;3.60;;
43042;SDS011;28667;50.758;6.096;2022-10-13T05:11:15;4.88;;;3.03;;
43042;SDS011;28667;50.758;6.096;2022-10-13T05:13:42;6.95;;;3.70;;
43042;SDS011;28667;50.758;6.096;2022-10-13T05:16:09;5.18;;;3.30;;
43042;SDS011;28667;50.758;6.096;2022-10-13T05:18:37;6.80;;;3.10;;
43042;SDS011;28667;50.758;6.096;2022-10-13T05:23:40;6.60;;;3.45;;
43042;SDS011;28667;50.758;6.096;2022-10-13T05:26:07;5.60;;;3.42;;
43042;SDS011;28667;50.758;6.096;2022-10-13T05:28:35;6.80;;;2.88;;
43042;SDS011;28667;50.758;6.096;2022-10-13T05:31:19;4.97;;;3.63;;
43042;SDS011;28667;50.758;6.096;2022-10-13T05:33:48;5.40;;;3.13;;
43042;SDS011;28667;50.758;6.096;2022-10-13T05:36:22;6.85;;;3.45;;
43042;SDS011;28667;50.758;6.096;2022-10-13T05:38:54;4.40;;;2.92;;
43042;SDS011;28667;50.758;6.096;2022-10-13T05:41:23;6.85;;;3.50;;
43042;SDS011;28667;50.758;6.096;2022-10-13T05:43:55;13.30;;;3.25;;
43042;SDS011;28667;50.758;6.096;2022-10-13T05:46:23;5.32;;;2.95;;
43042;SDS011;28667;50.758;6.096;2022-10-13T05:48:50;8.07;;;3.28;;
43042;SDS011;28667;50.758;6.096;2022-10-13T05:51:18;7.22;;;3.55;;
43042;SDS011;28667;50.758;6.096;2022-10-13T05:53:49;6.40;;;3.03;;
43042;SDS011;28667;50.758;6.096;2022-10-13T05:56:22;7.03;;;3.10;;
43042;SDS011;28667;50.758;6.096;2022-10-13T05:58:56;7.43;;;3.65;;
43042;SDS011;28667;50.758;6.096;2022-10-13T06:01:26;3.55;;;2.65;;
43042;SDS011;28667;50.758;6.096;2022-10-13T06:03:57;6.53;;;3.28;;
43042;SDS011;28667;50.758;6.096;2022-10-13T06:06:29;3.95;;;2.92;;
43042;SDS011;28667;50.758;6.096;2022-10-13T06:08:56;5.97;;;2.92;;
43042;SDS011;28667;50.758;6.096;2022-10-13T06:11:22;7.60;;;3.38;;
43042;SDS011;28667;50.758;6.096;2022-10-13T06:13:48;5.22;;;3.08;;
43042;SDS011;28667;50.758;6.096;2022-10-13T06:16:14;4.78;;;3.13;;
43042;SDS011;28667;50.758;6.096;2022-10-13T06:18:40;6.90;;;3.22;;
43042;SDS011;28667;50.758;6.096;2022-10-13T06:21:06;7.35;;;3.33;;
43042;SDS011;28667;50.758;6.096;2022-10-13T06:23:32;6.00;;;3.10;;
43042;SDS011;28667;50.758;6.096;2022-10-13T06:25:58;5.60;;;2.83;;
43042;SDS011;28667;50.758;6.096;2022-10-13T06:28:25;5.75;;;2.95;;
43042;SDS011;28667;50.758;6.096;2022-10-13T06:30:51;5.95;;;2.83;;
43042;SDS011;28667;50.758;6.096;2022-10-13T06:33:21;8.10;;;3.55;;
43042;SDS011;28667;50.758;6.096;2022-10-13T06:35:49;5.68;;;4.20;;
43042;SDS011;28667;50.758;6.096;2022-10-13T06:38:15;3.30;;;2.72;;
43042;SDS011;28667;50.758;6.096;2022-10-13T06:40:47;4.40;;;3.20;;
43042;SDS011;28667;50.758;6.096;2022-10-13T06:43:12;3.10;;;2.65;;
43042;SDS011;28667;50.758;6.096;2022-10-13T06:45:40;6.22;;;3.17;;
43042;SDS011;28667;50.758;6.096;2022-10-13T06:48:06;4.72;;;3.17;;
43042;SDS011;28667;50.758;6.096;2022-10-13T06:50:32;6.50;;;3.00;;
43042;SDS011;28667;50.758;6.096;2022-10-13T06:52:58;5.03;;;3.58;;
43042;SDS011;28667;50.758;6.096;2022-10-13T06:55:24;3.67;;;2.42;;
43042;SDS011;28667;50.758;6.096;2022-10-13T06:57:50;4.65;;;2.55;;
43042;SDS011;28667;50.758;6.096;2022-10-13T07:00:16;5.28;;;3.03;;
43042;SDS011;28667;50.758;6.096;2022-10-13T07:02:48;6.25;;;3.75;;
43042;SDS011;28667;50.758;6.096;2022-10-13T07:05:15;4.43;;;3.17;;
43042;SDS011;28667;50.758;6.096;2022-10-13T07:07:41;4.18;;;2.70;;
43042;SDS011;28667;50.758;6.096;2022-10-13T07:10:08;6.35;;;2.80;;
43042;SDS011;28667;50.758;6.096;2022-10-13T07:12:34;5.43;;;2.33;;
43042;SDS011;28667;50.758;6.096;2022-10-13T07:15:00;3.75;;;3.05;;
43042;SDS011;28667;50.758;6.096;2022-10-13T07:17:26;3.65;;;2.50;;
43042;SDS011;28667;50.758;6.096;2022-10-13T07:19:52;4.10;;;2.80;;
43042;SDS011;28667;50.758;6.096;2022-10-13T07:22:18;2.88;;;2.15;;
43042;SDS011;28667;50.758;6.096;2022-10-13T07:24:44;6.38;;;2.17;;
43042;SDS011;28667;50.758;6.096;2022-10-13T07:27:10;5.43;;;2.92;;
43042;SDS011;28667;50.758;6.096;2022-10-13T07:29:36;3.10;;;2.35;;
43042;SDS011;28667;50.758;6.096;2022-10-13T07:32:02;6.30;;;2.75;;
43042;SDS011;28667;50.758;6.096;2022-10-13T07:34:29;4.32;;;2.90;;
43042;SDS011;28667;50.758;6.096;2022-10-13T07:36:55;5.60;;;2.88;;
43042;SDS011;28667;50.758;6.096;2022-10-13T07:39:21;5.80;;;2.70;;
43042;SDS011;28667;50.758;6.096;2022-10-13T07:41:47;5.63;;;3.03;;
43042;SDS011;28667;50.758;6.096;2022-10-13T07:44:13;5.38;;;3.40;;
43042;SDS011;28667;50.758;6.096;2022-10-13T07:46:40;4.32;;;2.70;;
43042;SDS011;28667;50.758;6.096;2022-10-13T07:49:06;3.92;;;2.50;;
43042;SDS011;28667;50.758;6.096;2022-10-13T07:51:33;4.75;;;2.65;;
43042;SDS011;28667;50.758;6.096;2022-10-13T07:53:58;5.07;;;2.22;;
43042;SDS011;28667;50.758;6.096;2022-10-13T07:56:25;3.78;;;2.90;;
43042;SDS011;28667;50.758;6.096;2022-10-13T07:58:51;5.68;;;3.10;;
43042;SDS011;28667;50.758;6.096;2022-10-13T08:01:17;5.75;;;2.58;;
43042;SDS011;28667;50.758;6.096;2022-10-13T08:03:43;4.78;;;2.28;;
43042;SDS011;28667;50.758;6.096;2022-10-13T08:06:15;4.22;;;2.10;;
43042;SDS011;28667;50.758;6.096;2022-10-13T08:08:42;3.45;;;2.15;;
43042;SDS011;28667;50.758;6.096;2022-10-13T08:11:12;3.97;;;2.42;;
43042;SDS011;28667;50.758;6.096;2022-10-13T08:13:40;3.67;;;2.58;;
43042;SDS011;28667;50.758;6.096;2022-10-13T08:16:11;7.97;;;3.22;;
43042;SDS011;28667;50.758;6.096;2022-10-13T08:18:38;3.28;;;2.80;;
43042;SDS011;28667;50.758;6.096;2022-10-13T08:21:08;2.92;;;2.53;;
43042;SDS011;28667;50.758;6.096;2022-10-13T08:23:37;3.83;;;3.00;;
43042;SDS011;28667;50.758;6.096;2022-10-13T08:26:03;4.20;;;2.80;;
43042;SDS011;28667;50.758;6.096;2022-10-13T08:28:30;5.20;;;3.10;;
43042;SDS011;28667;50.758;6.096;2022-10-13T08:30:57;5.53;;;2.58;;
43042;SDS011;28667;50.758;6.096;2022-10-13T08:33:23;6.93;;;3.13;;
43042;SDS011;28667;50.758;6.096;2022-10-13T08:35:51;6.43;;;3.47;;
43042;SDS011;28667;50.758;6.096;2022-10-13T08:38:17;3.65;;;2.35;;
43042;SDS011;28667;50.758;6.096;2022-10-13T08:40:47;9.77;;;3.78;;
43042;SDS011;28667;50.758;6.096;2022-10-13T08:43:16;12.18;;;3.20;;
43042;SDS011;28667;50.758;6.096;2022-10-13T08:45:47;4.68;;;3.03;;
43042;SDS011;28667;50.758;6.096;2022-10-13T08:48:22;7.10;;;2.83;;
43042;SDS011;28667;50.758;6.096;2022-10-13T08:50:55;3.95;;;2.55;;
43042;SDS011;28667;50.758;6.096;2022-10-13T08:56:16;11.98;;;3.22;;
43042;SDS011;28667;50.758;6.096;2022-10-13T08:58:45;9.15;;;3.28;;
43042;SDS011;28667;50.758;6.096;2022-10-13T09:09:17;6.40;;;3.53;;
43042;SDS011;28667;50.758;6.096;2022-10-13T09:11:44;5.82;;;3.10;;
43042;SDS011;28667;50.758;6.096;2022-10-13T09:14:19;7.30;;;3.08;;
43042;SDS011;28667;50.758;6.096;2022-10-13T09:16:49;6.68;;;3.85;;
43042;SDS011;28667;50.758;6.096;2022-10-13T09:22:12;4.93;;;2.97;;
43042;SDS011;28667;50.758;6.096;2022-10-13T09:24:54;7.15;;;3.38;;
43042;SDS011;28667;50.758;6.096;2022-10-13T09:27:26;5.28;;;2.88;;
43042;SDS011;28667;50.758;6.096;2022-10-13T09:29:52;4.40;;;2.85;;
43042;SDS011;28667;50.758;6.096;2022-10-13T09:32:19;5.70;;;2.95;;
43042;SDS011;28667;50.758;6.096;2022-10-13T09:34:49;6.10;;;3.33;;
43042;SDS011;28667;50.758;6.096;2022-10-13T09:39:45;7.32;;;3.20;;
43042;SDS011;28667;50.758;6.096;2022-10-13T09:42:19;8.13;;;3.40;;
43042;SDS011;28667;50.758;6.096;2022-10-13T09:44:59;6.57;;;3.60;;
43042;SDS011;28667;50.758;6.096;2022-10-13T09:47:51;5.05;;;2.95;;
43042;SDS011;28667;50.758;6.096;2022-10-13T09:50:22;4.22;;;3.03;;
43042;SDS011;28667;50.758;6.096;2022-10-13T09:52:50;6.85;;;3.17;;
43042;SDS011;28667;50.758;6.096;2022-10-13T09:55:31;6.25;;;3.78;;
43042;SDS011;28667;50.758;6.096;2022-10-13T09:58:03;8.52;;;3.75;;
43042;SDS011;28667;50.758;6.096;2022-10-13T10:00:35;7.18;;;3.13;;
43042;SDS011;28667;50.758;6.096;2022-10-13T10:03:04;4.85;;;3.45;;
43042;SDS011;28667;50.758;6.096;2022-10-13T10:08:26;4.88;;;3.83;;
43042;SDS011;28667;50.758;6.096;2022-10-13T10:11:29;5.45;;;3.20;;
43042;SDS011;28667;50.758;6.096;2022-10-13T10:16:49;6.80;;;3.60;;
43042;SDS011;28667;50.758;6.096;2022-10-13T10:24:57;8.63;;;4.38;;
43042;SDS011;28667;50.758;6.096;2022-10-13T10:27:51;5.90;;;3.33;;
43042;SDS011;28667;50.758;6.096;2022-10-13T10:30:53;5.82;;;3.47;;
43042;SDS011;28667;50.758;6.096;2022-10-13T10:36:35;5.88;;;3.15;;
43042;SDS011;28667;50.758;6.096;2022-10-13T10:44:29;7.22;;;3.03;;
43042;SDS011;28667;50.758;6.096;2022-10-13T10:47:14;5.10;;;2.55;;
43042;SDS011;28667;50.758;6.096;2022-10-13T10:49:50;6.50;;;3.00;;
43042;SDS011;28667;50.758;6.096;2022-10-13T10:52:23;6.22;;;3.17;;
43042;SDS011;28667;50.758;6.096;2022-10-13T10:55:23;4.55;;;2.55;;
43042;SDS011;28667;50.758;6.096;2022-10-13T11:00:46;3.33;;;2.55;;
43042;SDS011;28667;50.758;6.096;2022-10-13T11:03:47;7.55;;;2.90;;
43042;SDS011;28667;50.758;6.096;2022-10-13T11:06:32;8.35;;;2.78;;
43042;SDS011;28667;50.758;6.096;2022-10-13T11:09:03;5.28;;;2.58;;
43042;SDS011;28667;50.758;6.096;2022-10-13T11:11:31;3.20;;;2.00;;
43042;SDS011;28667;50.758;6.096;2022-10-13T11:21:55;6.22;;;2.88;;
43042;SDS011;28667;50.758;6.096;2022-10-13T11:24:44;2.65;;;2.33;;
43042;SDS011;28667;50.758;6.096;2022-10-13T11:30:00;5.60;;;3.10;;
43042;SDS011;28667;50.758;6.096;2022-10-13T11:34:58;4.43;;;2.47;;
43042;SDS011;28667;50.758;6.096;2022-10-13T11:37:33;5.63;;;2.92;;
43042;SDS011;28667;50.758;6.096;2022-10-13T11:40:14;4.07;;;3.13;;
43042;SDS011;28667;50.758;6.096;2022-10-13T11:42:44;4.40;;;3.20;;
43042;SDS011;28667;50.758;6.096;2022-10-13T11:53:42;3.90;;;2.78;;
43042;SDS011;28667;50.758;6.096;2022-10-13T11:56:43;6.50;;;2.33;;
43042;SDS011;28667;50.758;6.096;2022-10-13T11:59:27;3.80;;;2.28;;
43042;SDS011;28667;50.758;6.096;2022-10-13T12:04:38;6.32;;;2.53;;
43042;SDS011;28667;50.758;6.096;2022-10-13T12:07:07;3.53;;;2.17;;
43042;SDS011;28667;50.758;6.096;2022-10-13T12:09:37;3.28;;;2.05;;
43042;SDS011;28667;50.758;6.096;2022-10-13T12:12:25;5.13;;;2.33;;
43042;SDS011;28667;50.758;6.096;2022-10-13T12:14:53;6.00;;;2.42;;
43042;SDS011;28667;50.758;6.096;2022-10-13T12:19:51;5.18;;;1.83;;
43042;SDS011;28667;50.758;6.096;2022-10-13T12:22:18;5.38;;;2.20;;
43042;SDS011;28667;50.758;6.096;2022-10-13T12:27:26;2.38;;;2.00;;
43042;SDS011;28667;50.758;6.096;2022-10-13T12:29:53;5.50;;;2.47;;
43042;SDS011;28667;50.758;6.096;2022-10-13T12:32:21;3.53;;;2.30;;
43042;SDS011;28667;50.758;6.096;2022-10-13T12:34:51;4.20;;;2.40;;
43042;SDS011;28667;50.758;6.096;2022-10-13T12:39:56;3.95;;;2.10;;
43042;SDS011;28667;50.758;6.096;2022-10-13T12:42:24;2.78;;;2.45;;
43042;SDS011;28667;50.758;6.096;2022-10-13T12:44:54;7.97;;;2.53;;
43042;SDS011;28667;50.758;6.096;2022-10-13T12:52:50;3.10;;;2.10;;
43042;SDS011;28667;50.758;6.096;2022-10-13T12:55:21;3.25;;;2.28;;
43042;SDS011;28667;50.758;6.096;2022-10-13T12:57:48;5.43;;;2.70;;
43042;SDS011;28667;50.758;6.096;2022-10-13T13:08:27;4.55;;;2.30;;
43042;SDS011;28667;50.758;6.096;2022-10-13T13:13:24;5.53;;;2.80;;
43042;SDS011;28667;50.758;6.096;2022-10-13T13:15:51;2.75;;;2.10;;
43042;SDS011;28667;50.758;6.096;2022-10-13T13:18:22;4.40;;;2.50;;
43042;SDS011;28667;50.758;6.096;2022-10-13T13:20:52;3.55;;;2.05;;
43042;SDS011;28667;50.758;6.096;2022-10-13T13:23:19;4.95;;;2.08;;
43042;SDS011;28667;50.758;6.096;2022-10-13T13:28:53;2.08;;;1.63;;
43042;SDS011;28667;50.758;6.096;2022-10-13T13:31:21;5.20;;;1.83;;
43042;SDS011;28667;50.758;6.096;2022-10-13T13:33:49;2.97;;;2.47;;
43042;SDS011;28667;50.758;6.096;2022-10-13T13:36:18;5.78;;;2.28;;
43042;SDS011;28667;50.758;6.096;2022-10-13T13:38:49;7.32;;;2.75;;
43042;SDS011;28667;50.758;6.096;2022-10-13T13:41:17;3.80;;;1.85;;
43042;SDS011;28667;50.758;6.096;2022-10-13T13:43:43;5.55;;;1.60;;
43042;SDS011;28667;50.758;6.096;2022-10-13T13:46:16;4.47;;;2.25;;
43042;SDS011;28667;50.758;6.096;2022-10-13T13:48:45;3.50;;;1.77;;
43042;SDS011;28667;50.758;6.096;2022-10-13T13:51:11;3.33;;;2.22;;
43042;SDS011;28667;50.758;6.096;2022-10-13T13:53:38;5.38;;;1.90;;
43042;SDS011;28667;50.758;6.096;2022-10-13T13:56:05;3.97;;;1.80;;
43042;SDS011;28667;50.758;6.096;2022-10-13T13:58:35;2.38;;;2.15;;
43042;SDS011;28667;50.758;6.096;2022-10-13T14:01:02;3.85;;;2.28;;
43042;SDS011;28667;50.758;6.096;2022-10-13T14:03:28;3.40;;;1.83;;
43042;SDS011;28667;50.758;6.096;2022-10-13T14:05:55;5.32;;;1.70;;
43042;SDS011;28667;50.758;6.096;2022-10-13T14:08:21;2.65;;;1.80;;
43042;SDS011;28667;50.758;6.096;2022-10-13T14:10:48;3.50;;;2.08;;
43042;SDS011;28667;50.758;6.096;2022-10-13T14:13:16;2.88;;;2.13;;
43042;SDS011;28667;50.758;6.096;2022-10-13T14:15:42;2.42;;;2.08;;
43042;SDS011;28667;50.758;6.096;2022-10-13T14:18:09;4.47;;;2.25;;
43042;SDS011;28667;50.758;6.096;2022-10-13T14:20:38;3.97;;;2.72;;
43042;SDS011;28667;50.758;6.096;2022-10-13T14:23:06;2.05;;;1.75;;
43042;SDS011;28667;50.758;6.096;2022-10-13T14:25:32;2.53;;;2.20;;
43042;SDS011;28667;50.758;6.096;2022-10-13T14:27:58;2.60;;;1.80;;
43042;SDS011;28667;50.758;6.096;2022-10-13T14:30:24;3.67;;;2.22;;
43042;SDS011;28667;50.758;6.096;2022-10-13T14:32:50;3.58;;;2.25;;
43042;SDS011;28667;50.758;6.096;2022-10-13T14:35:16;4.43;;;1.80;;
43042;SDS011;28667;50.758;6.096;2022-10-13T14:37:42;3.65;;;2.15;;
43042;SDS011;28667;50.758;6.096;2022-10-13T14:40:08;4.05;;;2.75;;
43042;SDS011;28667;50.758;6.096;2022-10-13T14:42:35;6.28;;;2.60;;
43042;SDS011;28667;50.758;6.096;2022-10-13T14:45:04;4.15;;;2.70;;
43042;SDS011;28667;50.758;6.096;2022-10-13T14:47:31;3.25;;;2.40;;
43042;SDS011;28667;50.758;6.096;2022-10-13T14:49:57;4.03;;;2.55;;
43042;SDS011;28667;50.758;6.096;2022-10-13T14:52:23;3.55;;;2.20;;
43042;SDS011;28667;50.758;6.096;2022-10-13T14:54:49;5.72;;;2.55;;
43042;SDS011;28667;50.758;6.096;2022-10-13T14:57:15;4.47;;;2.20;;
43042;SDS011;28667;50.758;6.096;2022-10-13T14:59:41;4.57;;;1.70;;
43042;SDS011;28667;50.758;6.096;2022-10-13T15:02:10;3.72;;;2.58;;
43042;SDS011;28667;50.758;6.096;2022-10-13T15:04:44;4.03;;;2.00;;
43042;SDS011;28667;50.758;6.096;2022-10-13T15:07:10;3.67;;;2.65;;
43042;SDS011;28667;50.758;6.096;2022-10-13T15:09:37;5.07;;;2.30;;
43042;SDS011;28667;50.758;6.096;2022-10-13T15:12:03;8.25;;;2.50;;
43042;SDS011;28667;50.758;6.096;2022-10-13T15:14:32;4.50;;;2.80;;
43042;SDS011;28667;50.758;6.096;2022-10-13T15:16:58;3.83;;;2.30;;
43042;SDS011;28667;50.758;6.096;2022-10-13T15:19:24;2.67;;;2.30;;
43042;SDS011;28667;50.758;6.096;2022-10-13T15:21:51;3.47;;;2.83;;
43042;SDS011;28667;50.758;6.096;2022-10-13T15:24:17;5.70;;;2.50;;
43042;SDS011;28667;50.758;6.096;2022-10-13T15:26:44;5.10;;;2.60;;
43042;SDS011;28667;50.758;6.096;2022-10-13T15:29:09;2.75;;;2.30;;
43042;SDS011;28667;50.758;6.096;2022-10-13T15:31:36;6.03;;;2.28;;
43042;SDS011;28667;50.758;6.096;2022-10-13T15:34:01;3.72;;;2.08;;
43042;SDS011;28667;50.758;6.096;2022-10-13T15:36:27;7.38;;;2.72;;
43042;SDS011;28667;50.758;6.096;2022-10-13T15:38:54;5.75;;;2.65;;
43042;SDS011;28667;50.758;6.096;2022-10-13T15:41:20;4.22;;;2.35;;
43042;SDS011;28667;50.758;6.096;2022-10-13T15:43:48;4.80;;;2.25;;
43042;SDS011;28667;50.758;6.096;2022-10-13T15:46:14;2.53;;;2.10;;
43042;SDS011;28667;50.758;6.096;2022-10-13T15:48:49;2.35;;;2.10;;
43042;SDS011;28667;50.758;6.096;2022-10-13T15:51:18;3.78;;;2.22;;
43042;SDS011;28667;50.758;6.096;2022-10-13T15:53:46;3.95;;;2.40;;
43042;SDS011;28667;50.758;6.096;2022-10-13T15:56:12;3.75;;;2.65;;
43042;SDS011;28667;50.758;6.096;2022-10-13T15:58:39;5.53;;;3.53;;
43042;SDS011;28667;50.758;6.096;2022-10-13T16:01:09;5.32;;;3.67;;
43042;SDS011;28667;50.758;6.096;2022-10-13T16:03:36;6.85;;;3.05;;
43042;SDS011;28667;50.758;6.096;2022-10-13T16:06:03;6.32;;;3.63;;
43042;SDS011;28667;50.758;6.096;2022-10-13T16:08:35;6.93;;;3.30;;
43042;SDS011;28667;50.758;6.096;2022-10-13T16:11:06;9.18;;;3.50;;
43042;SDS011;28667;50.758;6.096;2022-10-13T16:13:33;6.47;;;2.85;;
43042;SDS011;28667;50.758;6.096;2022-10-13T16:15:59;5.03;;;3.15;;
43042;SDS011;28667;50.758;6.096;2022-10-13T16:18:30;3.97;;;2.70;;
43042;SDS011;28667;50.758;6.096;2022-10-13T16:20:57;6.97;;;3.38;;
43042;SDS011;28667;50.758;6.096;2022-10-13T16:23:23;8.38;;;3.50;;
43042;SDS011;28667;50.758;6.096;2022-10-13T16:25:50;5.88;;;3.15;;
43042;SDS011;28667;50.758;6.096;2022-10-13T16:28:16;4.38;;;3.40;;
43042;SDS011;28667;50.758;6.096;2022-10-13T16:30:42;5.43;;;3.25;;
43042;SDS011;28667;50.758;6.096;2022-10-13T16:33:08;12.73;;;3.65;;
43042;SDS011;28667;50.758;6.096;2022-10-13T16:35:34;4.00;;;3.38;;
43042;SDS011;28667;50.758;6.096;2022-10-13T16:38:00;5.93;;;3.50;;
43042;SDS011;28667;50.758;6.096;2022-10-13T16:40:26;4.45;;;3.15;;
43042;SDS011;28667;50.758;6.096;2022-10-13T16:42:52;4.57;;;3.13;;
43042;SDS011;28667;50.758;6.096;2022-10-13T16:45:18;4.90;;;3.15;;
43042;SDS011;28667;50.758;6.096;2022-10-13T16:47:44;9.05;;;4.00;;
43042;SDS011;28667;50.758;6.096;2022-10-13T16:50:15;6.53;;;3.63;;
43042;SDS011;28667;50.758;6.096;2022-10-13T16:52:41;5.63;;;3.28;;